Time;durP1;ratioP1;P1;durP2;ratioP2;P2;SDS_P1;SDS_P2;PMS_P1;PMS_P2;Temp;Humidity;BMP_temperature;BMP_pressure;BME280_temperature;BME280_humidity;BME280_pressure;Samples;Min_cycle;Max_cycle;Signal;HPM_P1;HPM_P2
2022/04/10 00:02:23;;;;;;;7.93;1.65;;;;;;;-147.11;100.00;61570.13;5053930;28;20032;-46
2022/04/10 00:04:48;;;;;;;6.43;1.20;;;;;;;-147.11;100.00;61570.13;5053645;28;20032;-44
2022/04/10 00:07:14;;;;;;;7.10;1.73;;;;;;;-147.11;100.00;61570.13;5053922;28;20025;-46
2022/04/10 00:09:39;;;;;;;4.45;1.20;;;;;;;-147.11;100.00;61570.13;5052443;28;20052;-45
2022/04/10 00:12:05;;;;;;;10.45;1.20;;;;;;;-147.11;100.00;61570.13;5053945;28;20131;-44
2022/04/10 00:14:31;;;;;;;7.57;1.33;;;;;;;-147.11;100.00;61570.13;5053784;28;20046;-45
2022/04/10 00:16:56;;;;;;;5.30;1.17;;;;;;;-147.11;100.00;61570.13;5053357;28;20021;-43
2022/04/10 00:19:22;;;;;;;8.68;1.27;;;;;;;-147.11;100.00;61570.13;5053406;28;20036;-45
2022/04/10 00:21:48;;;;;;;9.00;1.52;;;;;;;-147.11;100.00;61570.13;5052885;28;20044;-45
2022/04/10 00:24:14;;;;;;;9.05;1.50;;;;;;;-147.11;100.00;61570.13;5053500;28;20080;-44
2022/04/10 00:26:39;;;;;;;6.25;1.23;;;;;;;-147.11;100.00;61570.13;5053573;28;20028;-43
2022/04/10 00:29:06;;;;;;;3.70;1.15;;;;;;;-147.11;100.00;61570.13;5053616;28;20025;-43
2022/04/10 00:31:31;;;;;;;7.05;1.65;;;;;;;-147.11;100.00;61570.13;5053522;28;20025;-43
2022/04/10 00:33:57;;;;;;;10.25;1.92;;;;;;;-147.11;100.00;61570.13;5053346;28;20047;-43
2022/04/10 00:36:22;;;;;;;7.72;1.20;;;;;;;-147.11;100.00;61570.13;5053413;28;20463;-45
2022/04/10 00:38:48;;;;;;;9.20;1.73;;;;;;;-147.11;100.00;61570.13;5053303;28;20215;-44
2022/04/10 00:41:13;;;;;;;11.20;1.50;;;;;;;-147.11;100.00;61570.13;5053085;28;20036;-46
2022/04/10 00:43:40;;;;;;;6.40;1.42;;;;;;;-147.11;100.00;61570.13;5053221;28;20036;-45
2022/04/10 00:46:05;;;;;;;8.38;1.52;;;;;;;-147.11;100.00;61570.13;5068729;28;20083;-44
2022/04/10 00:48:31;;;;;;;7.93;1.45;;;;;;;-147.11;100.00;61570.13;5053487;28;20475;-44
2022/04/10 00:53:41;;;;;;;5.72;1.40;;;;;;;-147.11;100.00;61570.13;5053606;28;20027;-44
2022/04/10 00:56:07;;;;;;;4.15;1.27;;;;;;;-147.11;100.00;61570.13;5053097;28;20033;-43
2022/04/10 00:58:33;;;;;;;6.32;1.50;;;;;;;-147.11;100.00;61570.13;5053258;28;20108;-43
2022/04/10 01:00:59;;;;;;;7.72;1.88;;;;;;;-147.11;100.00;61570.13;5053077;28;20056;-43
2022/04/10 01:03:24;;;;;;;6.55;1.60;;;;;;;-147.11;100.00;61570.13;5053167;28;20470;-47
2022/04/10 01:05:50;;;;;;;6.25;1.50;;;;;;;-147.11;100.00;61570.13;5053109;28;20412;-48
2022/04/10 01:08:16;;;;;;;6.43;1.50;;;;;;;-147.11;100.00;61570.13;5055039;28;20025;-46
2022/04/10 01:10:42;;;;;;;6.28;1.50;;;;;;;-147.11;100.00;61570.13;5057103;28;20044;-44
2022/04/10 01:13:08;;;;;;;6.57;1.40;;;;;;;-147.11;100.00;61570.13;5057197;28;20021;-43
2022/04/10 01:15:36;;;;;;;8.00;1.40;;;;;;;-147.11;100.00;61570.13;5056994;28;20060;-43
2022/04/10 01:18:03;;;;;;;11.20;1.85;;;;;;;-147.11;100.00;61570.13;5056952;28;20162;-43
2022/04/10 01:20:29;;;;;;;5.57;1.90;;;;;;;-147.11;100.00;61570.13;5056798;28;20470;-43
2022/04/10 01:22:55;;;;;;;7.20;1.50;;;;;;;-147.11;100.00;61570.13;5055796;28;20039;-45
2022/04/10 01:25:21;;;;;;;9.25;2.17;;;;;;;-147.11;100.00;61570.13;5056764;28;20028;-44
2022/04/10 01:27:47;;;;;;;7.07;1.75;;;;;;;-147.11;100.00;61570.13;5056893;28;20028;-43
2022/04/10 01:30:14;;;;;;;12.98;1.77;;;;;;;-147.11;100.00;61570.13;5056814;28;20363;-44
2022/04/10 01:32:39;;;;;;;10.98;2.17;;;;;;;-147.11;100.00;61570.13;5056867;28;20024;-46
2022/04/10 01:35:06;;;;;;;7.07;1.50;;;;;;;-147.11;100.00;61570.13;5056497;28;20025;-44
2022/04/10 01:37:35;;;;;;;7.05;1.75;;;;;;;-147.11;100.00;61570.13;5056659;28;20072;-43
2022/04/10 01:40:00;;;;;;;6.75;1.70;;;;;;;-147.11;100.00;61570.13;5056807;28;20062;-45
2022/04/10 01:42:26;;;;;;;10.60;2.03;;;;;;;-147.11;100.00;61570.13;5056905;28;20482;-45
2022/04/10 01:44:51;;;;;;;6.82;1.60;;;;;;;-147.11;100.00;61570.13;5056426;28;20524;-43
2022/04/10 01:47:17;;;;;;;6.45;1.73;;;;;;;-147.11;100.00;61570.13;5056670;28;20028;-44
2022/04/10 01:49:42;;;;;;;7.88;1.80;;;;;;;-147.11;100.00;61570.13;5056345;28;20028;-43
2022/04/10 01:52:08;;;;;;;9.80;1.73;;;;;;;-147.11;100.00;61570.13;5056348;28;20036;-43
2022/04/10 01:54:34;;;;;;;13.85;2.45;;;;;;;-147.11;100.00;61570.13;5056639;28;20029;-43
2022/04/10 01:57:00;;;;;;;5.25;1.08;;;;;;;-147.11;100.00;61570.13;5056383;28;20147;-44
2022/04/10 01:59:28;;;;;;;12.85;2.58;;;;;;;-147.11;100.00;61570.13;5056264;28;20060;-44
2022/04/10 02:01:53;;;;;;;12.52;1.83;;;;;;;-147.11;100.00;61570.13;5056349;28;20029;-43
2022/04/10 02:04:20;;;;;;;7.97;1.60;;;;;;;-147.11;100.00;61570.13;5056294;28;20402;-43
2022/04/10 02:06:46;;;;;;;9.57;2.17;;;;;;;-147.11;100.00;61570.13;5056004;28;20032;-43
2022/04/10 02:09:11;;;;;;;8.30;1.83;;;;;;;-147.11;100.00;61570.13;5056167;28;20040;-43
2022/04/10 02:11:37;;;;;;;8.45;2.08;;;;;;;-147.11;100.00;61570.13;5056226;28;20543;-43
2022/04/10 02:14:03;;;;;;;10.93;1.80;;;;;;;-147.11;100.00;61570.13;5056049;28;20025;-44
2022/04/10 02:16:28;;;;;;;7.35;1.77;;;;;;;-147.11;100.00;61570.13;5071180;28;20029;-44
2022/04/10 02:18:53;;;;;;;4.80;1.65;;;;;;;-147.11;100.00;61570.13;5054992;28;20032;-44
2022/04/10 02:21:19;;;;;;;9.73;1.90;;;;;;;-147.11;100.00;61570.13;5055724;28;20021;-43
2022/04/10 02:23:44;;;;;;;7.65;1.73;;;;;;;-147.11;100.00;61570.13;5056073;28;20036;-43
2022/04/10 02:26:11;;;;;;;4.57;1.50;;;;;;;-147.11;100.00;61570.13;5055793;28;20029;-43
2022/04/10 02:28:38;;;;;;;11.85;1.80;;;;;;;-147.11;100.00;61570.13;5055907;28;20025;-43
2022/04/10 02:31:03;;;;;;;7.97;2.08;;;;;;;-147.11;100.00;61570.13;5056398;28;20049;-43
2022/04/10 02:33:29;;;;;;;6.68;1.80;;;;;;;-147.11;100.00;61570.13;5055590;28;20064;-43
2022/04/10 02:35:55;;;;;;;6.40;1.65;;;;;;;-147.11;100.00;61570.13;5054403;28;20074;-43
2022/04/10 02:38:20;;;;;;;7.38;1.60;;;;;;;-147.11;100.00;61570.13;5055380;28;20033;-45
2022/04/10 02:40:46;;;;;;;11.45;2.00;;;;;;;-147.11;100.00;61570.13;5055619;28;20385;-43
2022/04/10 02:43:13;;;;;;;9.60;1.77;;;;;;;-147.11;100.00;61570.13;5055577;28;20029;-42
2022/04/10 02:45:42;;;;;;;9.95;1.70;;;;;;;-147.11;100.00;61570.13;5055304;28;20039;-45
2022/04/10 02:48:09;;;;;;;10.13;1.80;;;;;;;-147.11;100.00;61570.13;5055291;28;20112;-45
2022/04/10 02:50:35;;;;;;;10.18;2.17;;;;;;;-147.11;100.00;61570.13;5055233;28;20028;-44
2022/04/10 02:53:00;;;;;;;7.05;1.73;;;;;;;-147.11;100.00;61570.13;5055263;28;20424;-43
2022/04/10 02:55:26;;;;;;;7.80;1.75;;;;;;;-147.11;100.00;61570.13;5055196;28;20120;-44
2022/04/10 02:57:51;;;;;;;9.82;2.15;;;;;;;-147.11;100.00;61570.13;5055256;28;20060;-44
2022/04/10 03:00:17;;;;;;;6.40;2.05;;;;;;;-147.11;100.00;61570.13;5054941;28;20150;-43
2022/04/10 03:02:43;;;;;;;10.20;1.77;;;;;;;-147.11;100.00;61570.13;5054835;28;20044;-43
2022/04/10 03:05:09;;;;;;;9.60;2.17;;;;;;;-147.11;100.00;61570.13;5055073;28;20037;-44
2022/04/10 03:07:35;;;;;;;9.18;2.05;;;;;;;-147.11;100.00;61570.13;5055638;28;20470;-44
2022/04/10 03:10:00;;;;;;;5.55;2.28;;;;;;;-147.11;100.00;61570.13;5070456;28;20031;-44
2022/04/10 03:12:26;;;;;;;8.27;2.00;;;;;;;-147.11;100.00;61570.13;5055484;28;20377;-44
2022/04/10 03:14:51;;;;;;;7.47;1.80;;;;;;;-147.11;100.00;61570.13;5054776;28;20086;-45
2022/04/10 03:17:17;;;;;;;7.97;1.70;;;;;;;-147.11;100.00;61570.13;5054806;28;20394;-43
2022/04/10 03:19:42;;;;;;;9.57;2.33;;;;;;;-147.11;100.00;61570.13;5070062;28;20413;-44
2022/04/10 03:22:08;;;;;;;6.80;1.73;;;;;;;-147.11;100.00;61570.13;5054834;28;20032;-47
2022/04/10 03:24:33;;;;;;;10.13;2.20;;;;;;;-147.11;100.00;61570.13;5054676;28;20045;-44
2022/04/10 03:26:59;;;;;;;4.75;1.85;;;;;;;-147.11;100.00;61570.13;5054758;28;20036;-44
2022/04/10 03:29:24;;;;;;;9.02;2.20;;;;;;;-147.11;100.00;61570.13;5054699;28;20033;-42
2022/04/10 03:31:50;;;;;;;9.15;2.05;;;;;;;-147.11;100.00;61570.13;5054531;28;20052;-41
2022/04/10 03:34:15;;;;;;;6.68;1.80;;;;;;;-147.11;100.00;61570.13;5054660;28;20060;-41
2022/04/10 03:36:41;;;;;;;7.43;2.17;;;;;;;-147.11;100.00;61570.13;5054221;28;20029;-41
2022/04/10 03:39:06;;;;;;;5.43;1.73;;;;;;;-147.11;100.00;61570.13;5054399;28;20036;-41
2022/04/10 03:41:32;;;;;;;7.68;1.73;;;;;;;-147.11;100.00;61570.13;5054346;28;20032;-41
2022/04/10 03:43:57;;;;;;;10.40;2.30;;;;;;;-147.11;100.00;61570.13;5054430;28;20044;-41
2022/04/10 03:46:23;;;;;;;6.03;1.95;;;;;;;-147.11;100.00;61570.13;5054061;28;20033;-41
2022/04/10 03:48:48;;;;;;;9.48;1.95;;;;;;;-147.11;100.00;61570.13;5053125;28;20039;-41
2022/04/10 03:51:14;;;;;;;9.80;1.92;;;;;;;-147.11;100.00;61570.13;5054642;28;20029;-41
2022/04/10 03:53:40;;;;;;;8.18;1.75;;;;;;;-147.11;100.00;61570.13;5052941;28;20025;-41
2022/04/10 03:56:05;;;;;;;6.20;1.80;;;;;;;-147.11;100.00;61570.13;5053835;28;20033;-41
2022/04/10 03:58:32;;;;;;;10.13;2.40;;;;;;;-147.11;100.00;61570.13;5054136;28;20055;-40
2022/04/10 04:00:57;;;;;;;8.00;2.00;;;;;;;-147.11;100.00;61570.13;5053690;28;20057;-42
2022/04/10 04:03:23;;;;;;;8.65;2.13;;;;;;;-147.11;100.00;61570.13;5054040;28;20044;-42
2022/04/10 04:05:48;;;;;;;5.22;1.75;;;;;;;-147.11;100.00;61570.13;5053796;28;20025;-41
2022/04/10 04:08:15;;;;;;;10.75;2.00;;;;;;;-147.11;100.00;61570.13;5053821;28;20028;-41
2022/04/10 04:10:40;;;;;;;6.95;2.05;;;;;;;-147.11;100.00;61570.13;5053920;28;20053;-43
2022/04/10 04:13:06;;;;;;;6.85;1.80;;;;;;;-147.11;100.00;61570.13;5054306;28;20041;-41
2022/04/10 04:15:31;;;;;;;6.90;1.98;;;;;;;-147.11;100.00;61570.13;5054004;28;20490;-41
2022/04/10 04:17:57;;;;;;;7.90;1.92;;;;;;;-147.11;100.00;61570.13;5053821;28;20029;-41
2022/04/10 04:20:22;;;;;;;7.18;1.80;;;;;;;-147.11;100.00;61570.13;5053461;28;20061;-41
2022/04/10 04:22:51;;;;;;;11.07;2.15;;;;;;;-147.11;100.00;61570.13;5053635;28;20079;-41
2022/04/10 04:25:17;;;;;;;11.95;1.90;;;;;;;-147.11;100.00;61570.13;5053694;28;20028;-41
2022/04/10 04:27:43;;;;;;;8.27;1.83;;;;;;;-147.11;100.00;61570.13;5053739;28;20162;-42
2022/04/10 04:30:09;;;;;;;7.05;2.17;;;;;;;-147.11;100.00;61570.13;5053706;28;20494;-41
2022/04/10 04:32:34;;;;;;;11.13;2.30;;;;;;;-147.11;100.00;61570.13;5053619;28;20033;-41
2022/04/10 04:34:59;;;;;;;9.65;2.88;;;;;;;-147.11;100.00;61570.13;5053697;28;20492;-41
2022/04/10 04:37:25;;;;;;;7.03;1.92;;;;;;;-147.11;100.00;61570.13;5056540;28;20029;-40
2022/04/10 04:39:50;;;;;;;10.85;2.40;;;;;;;-147.11;100.00;61570.13;5054785;28;20087;-40
2022/04/10 04:42:16;;;;;;;8.75;2.60;;;;;;;-147.11;100.00;61570.13;5053075;28;20025;-41
2022/04/10 04:44:41;;;;;;;7.68;2.10;;;;;;;-147.11;100.00;61570.13;5054207;28;20043;-41
2022/04/10 04:47:07;;;;;;;7.45;2.70;;;;;;;-147.11;100.00;61570.13;5054028;28;20386;-41
2022/04/10 04:49:32;;;;;;;7.88;2.75;;;;;;;-147.11;100.00;61570.13;5053358;28;20033;-41
2022/04/10 04:51:58;;;;;;;10.15;2.40;;;;;;;-147.11;100.00;61570.13;5053798;28;20056;-41
2022/04/10 04:54:26;;;;;;;9.13;2.20;;;;;;;-147.11;100.00;61570.13;5069118;28;20474;-41
2022/04/10 04:56:59;;;;;;;9.02;2.50;;;;;;;-147.11;100.00;61570.13;5068785;28;20041;-41
2022/04/10 04:59:30;;;;;;;11.55;2.97;;;;;;;-147.11;100.00;61570.13;5053375;28;20033;-41
2022/04/10 05:02:21;;;;;;;10.82;2.60;;;;;;;-147.11;100.00;61570.13;5053322;28;20029;-42
2022/04/10 05:04:46;;;;;;;10.55;2.38;;;;;;;-147.11;100.00;61570.13;5053420;28;20031;-43
2022/04/10 05:07:12;;;;;;;10.18;2.05;;;;;;;-147.11;100.00;61570.13;5068637;28;20036;-43
2022/04/10 05:09:37;;;;;;;7.60;2.45;;;;;;;-147.11;100.00;61570.13;5053317;28;20112;-43
2022/04/10 05:12:03;;;;;;;9.35;3.10;;;;;;;-147.11;100.00;61570.13;5052279;28;20037;-43
2022/04/10 05:14:28;;;;;;;5.60;2.22;;;;;;;-147.11;100.00;61570.13;5053133;28;20025;-43
2022/04/10 05:16:54;;;;;;;10.57;2.60;;;;;;;-147.11;100.00;61570.13;5053031;28;20428;-44
2022/04/10 05:19:20;;;;;;;8.55;2.85;;;;;;;-147.11;100.00;61570.13;5051790;28;20079;-44
2022/04/10 05:21:45;;;;;;;11.65;2.80;;;;;;;-147.11;100.00;61570.13;5051729;28;20033;-40
2022/04/10 05:24:11;;;;;;;5.43;2.15;;;;;;;-147.11;100.00;61570.13;5053197;28;20029;-38
2022/04/10 05:26:37;;;;;;;14.18;2.78;;;;;;;-147.11;100.00;61570.13;5053041;28;20122;-37
2022/04/10 05:29:03;;;;;;;6.05;2.10;;;;;;;-147.11;100.00;61570.13;5052865;28;20044;-37
2022/04/10 05:31:28;;;;;;;8.57;2.55;;;;;;;-147.11;100.00;61570.13;5052951;28;20049;-37
2022/04/10 05:33:54;;;;;;;10.20;2.55;;;;;;;-147.11;100.00;61570.13;5052858;28;20451;-37
2022/04/10 05:36:19;;;;;;;17.83;5.40;;;;;;;-147.11;100.00;61570.13;5052942;28;20520;-37
2022/04/10 05:38:46;;;;;;;13.15;2.95;;;;;;;-147.11;100.00;61570.13;5052572;28;20095;-37
2022/04/10 05:41:12;;;;;;;8.07;2.30;;;;;;;-147.11;100.00;61570.13;5052717;28;20039;-37
2022/04/10 05:43:38;;;;;;;7.93;2.45;;;;;;;-147.11;100.00;61570.13;5053019;28;20049;-37
2022/04/10 05:46:03;;;;;;;8.23;2.20;;;;;;;-147.11;100.00;61570.13;5052502;28;20045;-37
2022/04/10 05:48:29;;;;;;;7.10;2.30;;;;;;;-147.11;100.00;61570.13;5052706;28;20043;-37
2022/04/10 05:50:54;;;;;;;10.18;2.50;;;;;;;-147.11;100.00;61570.13;5052721;28;20104;-37
2022/04/10 05:53:20;;;;;;;7.53;2.40;;;;;;;-147.11;100.00;61570.13;5053582;28;20377;-37
2022/04/10 05:55:45;;;;;;;9.27;2.88;;;;;;;-147.11;100.00;61570.13;5056391;28;20021;-38
2022/04/10 05:58:11;;;;;;;7.80;2.33;;;;;;;-147.11;100.00;61570.13;5056445;28;20024;-37
2022/04/10 06:00:37;;;;;;;9.25;2.58;;;;;;;-147.11;100.00;61570.13;5056953;28;20053;-37
2022/04/10 06:03:03;;;;;;;12.57;3.10;;;;;;;-147.11;100.00;61570.13;5056333;28;20543;-37
2022/04/10 06:05:29;;;;;;;8.10;2.50;;;;;;;-147.11;100.00;61570.13;5056165;28;20029;-37
2022/04/10 06:07:55;;;;;;;9.27;2.50;;;;;;;-147.11;100.00;61570.13;5056186;28;20044;-37
2022/04/10 06:10:20;;;;;;;13.20;5.05;;;;;;;-147.11;100.00;61570.13;5056123;28;20032;-37
2022/04/10 06:12:46;;;;;;;7.97;2.60;;;;;;;-147.11;100.00;61570.13;5055831;28;20055;-38
2022/04/10 06:15:12;;;;;;;7.18;2.67;;;;;;;-147.11;100.00;61570.13;5055882;28;20021;-37
2022/04/10 06:17:37;;;;;;;5.50;2.45;;;;;;;-147.11;100.00;61570.13;5056007;28;20378;-37
2022/04/10 06:20:03;;;;;;;6.80;2.13;;;;;;;-147.11;100.00;61570.13;5055876;28;20036;-37
2022/04/10 06:22:29;;;;;;;7.50;2.65;;;;;;;-147.11;100.00;61570.13;5055902;28;20473;-37
2022/04/10 06:24:55;;;;;;;8.73;2.22;;;;;;;-147.11;100.00;61570.13;5056129;28;20041;-38
2022/04/10 06:27:20;;;;;;;13.35;2.58;;;;;;;-147.11;100.00;61570.13;5056971;28;20028;-37
2022/04/10 06:29:47;;;;;;;6.63;1.90;;;;;;;-147.11;100.00;61570.13;5057546;28;20036;-37
2022/04/10 06:32:13;;;;;;;12.35;2.53;;;;;;;-147.11;100.00;61570.13;5071003;28;20041;-43
2022/04/10 06:34:39;;;;;;;6.70;2.40;;;;;;;-147.11;100.00;61570.13;5071031;28;20112;-43
2022/04/10 06:37:05;;;;;;;12.65;2.60;;;;;;;-147.11;100.00;61570.13;5055841;28;20367;-43
2022/04/10 06:39:31;;;;;;;5.28;2.05;;;;;;;-147.11;100.00;61570.13;5055515;28;20028;-44
2022/04/10 06:41:56;;;;;;;7.53;2.17;;;;;;;-147.11;100.00;61570.13;5055663;28;20028;-41
2022/04/10 06:44:22;;;;;;;7.72;2.38;;;;;;;-147.11;100.00;61570.13;5055691;28;20029;-41
2022/04/10 06:46:48;;;;;;;12.63;2.42;;;;;;;-147.11;100.00;61570.13;5055752;28;20414;-40
2022/04/10 06:49:13;;;;;;;7.05;2.20;;;;;;;-147.11;100.00;61570.13;5055717;28;20163;-41
2022/04/10 06:51:40;;;;;;;8.27;2.60;;;;;;;-147.11;100.00;61570.13;5055593;28;20040;-43
2022/04/10 06:54:07;;;;;;;7.43;2.10;;;;;;;-147.11;100.00;61570.13;5055530;28;20021;-43
2022/04/10 06:56:32;;;;;;;6.70;1.80;;;;;;;-147.11;100.00;61570.13;5055993;28;20052;-43
2022/04/10 06:58:58;;;;;;;9.02;2.30;;;;;;;-147.11;100.00;61570.13;5070764;28;20478;-40
2022/04/10 07:01:23;;;;;;;9.85;2.42;;;;;;;-147.11;100.00;61570.13;5055493;28;20033;-39
2022/04/10 07:03:49;;;;;;;10.27;2.22;;;;;;;-147.11;100.00;61570.13;5055318;28;20391;-40
2022/04/10 07:06:14;;;;;;;6.13;2.45;;;;;;;-147.11;100.00;61570.13;5054599;28;20029;-40
2022/04/10 07:08:40;;;;;;;7.45;2.08;;;;;;;-147.11;100.00;61570.13;5055825;28;20028;-40
2022/04/10 07:11:06;;;;;;;6.72;2.05;;;;;;;-147.11;100.00;61570.13;5055221;28;20032;-41
2022/04/10 07:13:31;;;;;;;9.70;2.00;;;;;;;-147.11;100.00;61570.13;5055263;28;20475;-41
2022/04/10 07:15:57;;;;;;;8.52;2.00;;;;;;;-147.11;100.00;61570.13;5055339;28;20135;-41
2022/04/10 07:18:22;;;;;;;9.25;1.67;;;;;;;-147.11;100.00;61570.13;5054911;28;20025;-40
2022/04/10 07:20:48;;;;;;;6.03;2.00;;;;;;;-147.11;100.00;61570.13;5070201;28;20501;-40
2022/04/10 07:25:58;;;;;;;11.02;2.13;;;;;;;-147.11;100.00;61570.13;5054801;28;20071;-40
2022/04/10 07:28:23;;;;;;;8.75;2.10;;;;;;;-147.11;100.00;61570.13;5054569;28;20025;-40
2022/04/10 07:30:49;;;;;;;8.68;2.08;;;;;;;-147.11;100.00;61570.13;5054702;28;20100;-40
2022/04/10 07:33:15;;;;;;;9.55;1.90;;;;;;;-147.11;100.00;61570.13;5054792;28;20028;-38
2022/04/10 07:35:44;;;;;;;9.50;2.17;;;;;;;-147.11;100.00;61570.13;5054414;28;20151;-37
2022/04/10 07:38:10;;;;;;;7.97;1.80;;;;;;;-147.11;100.00;61570.13;5054359;28;20374;-38
2022/04/10 07:40:36;;;;;;;7.32;2.00;;;;;;;-147.11;100.00;61570.13;5069699;28;20032;-37
2022/04/10 07:43:02;;;;;;;9.50;3.20;;;;;;;-147.11;100.00;61570.13;5054247;28;20033;-38
2022/04/10 07:48:12;;;;;;;9.00;2.92;;;;;;;-147.11;100.00;61570.13;5054468;28;20102;-38
2022/04/10 07:50:38;;;;;;;7.53;1.83;;;;;;;-147.11;100.00;61570.13;5054183;28;20020;-38
2022/04/10 07:53:04;;;;;;;6.65;1.90;;;;;;;-147.11;100.00;61570.13;5052985;28;20037;-38
2022/04/10 07:55:30;;;;;;;5.85;1.73;;;;;;;-147.11;100.00;61570.13;5054204;28;20112;-38
2022/04/10 07:57:55;;;;;;;8.85;2.00;;;;;;;-147.11;100.00;61570.13;5069391;28;20055;-38
2022/04/10 08:00:21;;;;;;;7.88;2.20;;;;;;;-147.11;100.00;61570.13;5053960;28;20029;-38
2022/04/10 08:02:50;;;;;;;4.43;1.60;;;;;;;-147.11;100.00;61570.13;5054640;28;20032;-38
2022/04/10 08:05:18;;;;;;;7.05;2.10;;;;;;;-147.11;100.00;61570.13;5053979;28;20339;-38
2022/04/10 08:07:44;;;;;;;6.75;2.00;;;;;;;-147.11;100.00;61570.13;5053788;28;20029;-38
2022/04/10 08:10:10;;;;;;;6.03;2.25;;;;;;;-147.11;100.00;61570.13;5053999;28;20044;-45
2022/04/10 08:12:36;;;;;;;10.02;2.00;;;;;;;-147.11;100.00;61570.13;5053877;28;20028;-44
2022/04/10 08:15:03;;;;;;;6.78;2.05;;;;;;;-147.11;100.00;61570.13;5053675;28;20098;-44
2022/04/10 08:17:29;;;;;;;10.13;2.47;;;;;;;-147.11;100.00;61570.13;5053031;28;20059;-44
2022/04/10 08:19:55;;;;;;;7.55;2.10;;;;;;;-147.11;100.00;61570.13;5053637;28;20032;-45
2022/04/10 08:22:27;;;;;;;6.95;2.60;;;;;;;-147.11;100.00;61570.13;5053647;28;20041;-45
2022/04/10 08:24:53;;;;;;;6.28;2.35;;;;;;;-147.11;100.00;61570.13;5053503;28;20481;-43
2022/04/10 08:27:19;;;;;;;9.02;1.77;;;;;;;-147.11;100.00;61570.13;5053786;28;20025;-43
2022/04/10 08:29:44;;;;;;;11.63;2.05;;;;;;;-147.11;100.00;61570.13;5053699;28;20029;-44
2022/04/10 08:32:10;;;;;;;9.73;3.70;;;;;;;-147.11;100.00;61570.13;5053630;28;20056;-43
2022/04/10 08:34:35;;;;;;;9.57;1.85;;;;;;;-147.11;100.00;61570.13;5053237;28;20107;-44
2022/04/10 08:37:05;;;;;;;5.53;1.88;;;;;;;-147.11;100.00;61570.13;5053283;28;20036;-45
2022/04/10 08:39:34;;;;;;;8.48;2.67;;;;;;;-147.11;100.00;61570.13;5052913;28;20441;-45
2022/04/10 08:42:05;;;;;;;9.98;1.70;;;;;;;-147.11;100.00;61570.13;5053938;28;20033;-40
2022/04/10 08:44:32;;;;;;;5.43;1.60;;;;;;;-147.11;100.00;61570.13;5054100;28;20107;-41
2022/04/10 08:46:59;;;;;;;6.63;1.75;;;;;;;-147.11;100.00;61570.13;5053362;28;20115;-41
2022/04/10 08:49:31;;;;;;;6.47;1.60;;;;;;;-147.11;100.00;61570.13;5068678;28;20075;-41
2022/04/10 08:52:00;;;;;;;9.43;1.75;;;;;;;-147.11;100.00;61570.13;5053426;28;20025;-41
2022/04/10 08:54:26;;;;;;;7.25;2.05;;;;;;;-147.11;100.00;61570.13;5053416;28;20088;-42
2022/04/10 08:56:52;;;;;;;9.10;1.98;;;;;;;7.16;53.05;101119.03;5042043;28;20544;-41
2022/04/10 08:59:19;;;;;;;7.45;1.70;;;;;;;7.11;53.16;101121.81;5050763;28;20036;-41
2022/04/10 09:01:50;;;;;;;6.28;1.60;;;;;;;7.14;52.66;101141.78;5053504;28;20040;-42
2022/04/10 09:04:16;;;;;;;7.35;1.90;;;;;;;-147.11;100.00;61570.13;5062022;28;20103;-41
2022/04/10 09:06:41;;;;;;;28.60;10.63;;;;;;;-147.11;100.00;61570.13;5057366;28;20128;-41
2022/04/10 09:09:16;;;;;;;9.43;1.80;;;;;;;-147.11;100.00;61570.13;5052856;28;20378;-41
2022/04/10 09:11:42;;;;;;;6.65;1.50;;;;;;;-147.11;100.00;61570.13;5053086;28;20048;-41
2022/04/10 09:14:08;;;;;;;9.38;2.03;;;;;;;-147.11;100.00;61570.13;5050361;28;20053;-41
2022/04/10 09:16:34;;;;;;;8.57;1.50;;;;;;;-147.11;100.00;61570.13;5040375;28;20555;-42
2022/04/10 09:19:08;;;;;;;4.93;1.70;;;;;;;7.16;52.38;101132.13;5060477;28;20424;-41
2022/04/10 09:21:39;;;;;;;9.15;1.85;;;;;;;7.22;52.25;101131.03;5057781;28;20032;-42
2022/04/10 09:24:05;;;;;;;8.07;1.65;;;;;;;7.30;51.73;101128.97;5056881;28;20033;-41
2022/04/10 09:26:46;;;;;;;6.30;1.50;;;;;;;7.31;51.27;101134.19;5055536;28;20501;-41
2022/04/10 09:29:13;;;;;;;9.15;1.42;;;;;;;7.30;51.38;101132.47;5043188;28;20029;-42
2022/04/10 09:31:38;;;;;;;8.25;1.75;;;;;;;7.30;51.27;101142.94;5072900;28;20115;-40
2022/04/10 09:34:06;;;;;;;5.22;1.67;;;;;;;7.26;52.10;101143.97;5054717;28;20037;-41
2022/04/10 09:36:36;;;;;;;9.27;2.08;;;;;;;7.30;51.96;101145.56;5052151;28;20433;-41
2022/04/10 09:39:13;;;;;;;10.57;1.90;;;;;;;7.32;52.25;101137.63;5055411;28;20036;-41
2022/04/10 09:41:40;;;;;;;8.90;1.95;;;;;;;7.34;52.14;101133.19;5051547;28;20033;-41
2022/04/10 09:44:17;;;;;;;6.85;1.80;;;;;;;7.39;52.03;101135.63;5053439;28;20383;-41
2022/04/10 09:46:43;;;;;;;7.35;1.70;;;;;;;7.45;52.61;101145.88;5048203;28;20489;-41
2022/04/10 09:49:13;;;;;;;6.95;1.85;;;;;;;7.52;52.25;101143.88;5057618;28;20048;-41
2022/04/10 09:52:17;;;;;;;6.22;1.50;;;;;;;7.55;52.52;101146.38;5053457;28;20028;-41
2022/04/10 09:54:48;;;;;;;8.02;1.67;;;;;;;7.59;52.39;101140.97;5061559;28;20280;-41
2022/04/10 09:57:15;;;;;;;9.90;2.15;;;;;;;7.60;51.70;101131.31;5044730;28;20090;-41
2022/04/10 09:59:46;;;;;;;9.07;1.65;;;;;;;7.54;51.53;101128.97;5061721;28;20039;-42
2022/04/10 10:02:14;;;;;;;5.22;1.67;;;;;;;7.52;51.51;101131.63;5057445;28;20099;-41
2022/04/10 10:04:41;;;;;;;7.25;2.03;;;;;;;7.52;51.71;101151.75;5031216;28;20116;-42
2022/04/10 10:07:12;;;;;;;6.43;1.80;;;;;;;7.47;52.07;101149.31;5045959;28;20376;-41
2022/04/10 10:09:38;;;;;;;8.25;1.70;;;;;;;7.46;52.84;101152.81;5067316;28;20032;-41
2022/04/10 10:12:05;;;;;;;6.97;1.48;;;;;;;7.44;53.13;101144.19;5076293;28;20020;-41
2022/04/10 10:14:31;;;;;;;6.43;1.90;;;;;;;7.41;52.71;101144.28;5063249;28;20032;-41
2022/04/10 10:17:02;;;;;;;6.80;1.85;;;;;;;7.42;52.84;101146.00;5072881;28;20033;-41
2022/04/10 10:19:36;;;;;;;9.15;1.88;;;;;;;7.48;53.00;101151.00;5056469;28;20108;-42
2022/04/10 10:22:03;;;;;;;5.95;1.98;;;;;;;7.47;52.51;101150.13;5067179;28;20074;-41
2022/04/10 10:24:58;;;;;;;7.72;1.90;;;;;;;7.42;52.70;101146.00;5062027;28;20028;-41
2022/04/10 10:27:42;;;;;;;8.35;2.55;;;;;;;7.35;53.02;101155.84;5042639;28;20021;-41
2022/04/10 10:30:43;;;;;;;5.45;2.10;;;;;;;7.31;52.84;101143.78;5062295;28;20469;-41
2022/04/10 10:33:19;;;;;;;8.75;1.70;;;;;;;7.35;53.01;101145.38;5061708;28;20518;-42
2022/04/10 10:35:49;;;;;;;5.85;1.90;;;;;;;7.43;53.22;101142.47;5062721;28;20028;-41
2022/04/10 10:38:35;;;;;;;;;;;;;;;7.50;53.22;101161.41;5066171;28;20462;-41
2022/04/10 10:41:16;;;;;;;7.72;1.70;;;;;;;7.57;52.36;101124.47;5073134;28;19925;-41
2022/04/10 10:43:42;;;;;;;5.57;1.77;;;;;;;7.60;50.76;101129.56;5065967;28;20024;-38
2022/04/10 10:46:24;;;;;;;5.47;1.88;;;;;;;7.56;51.22;101130.59;5071906;28;20020;-38
2022/04/10 10:49:09;;;;;;;5.78;1.60;;;;;;;7.58;50.75;101141.00;5054097;28;20037;-38
2022/04/10 10:51:41;;;;;;;7.88;2.47;;;;;;;7.61;50.14;101139.16;5051998;28;20029;-38
2022/04/10 10:54:21;;;;;;;7.00;1.80;;;;;;;7.71;50.32;101131.78;5060489;28;20090;-39
2022/04/10 10:56:50;;;;;;;5.20;1.48;;;;;;;7.81;50.11;101147.13;5066685;28;20032;-39
2022/04/10 10:59:32;;;;;;;9.13;1.60;;;;;;;7.85;49.09;101160.03;5047223;28;20029;-38
2022/04/10 11:02:18;;;;;;;5.38;1.20;;;;;;;7.84;48.96;101153.09;5060378;28;20036;-38
2022/04/10 11:04:50;;;;;;;4.10;1.50;;;;;;;7.83;49.06;101142.69;5061951;28;20411;-38
2022/04/10 11:07:18;;;;;;;5.63;1.20;;;;;;;7.81;49.32;101168.91;5068610;28;20417;-39
2022/04/10 11:09:56;;;;;;;5.57;1.77;;;;;;;7.66;51.24;101187.84;5058538;28;20028;-38
2022/04/10 11:12:28;;;;;;;6.43;1.50;;;;;;;-147.11;100.00;61570.13;5050127;28;20083;-38
2022/04/10 11:14:56;;;;;;;4.10;1.40;;;;;;;-147.11;100.00;61570.13;5045140;28;20028;-38
2022/04/10 11:17:30;;;;;;;6.03;1.70;;;;;;;-147.11;100.00;61570.13;5047760;28;20022;-38
2022/04/10 11:20:07;;;;;;;9.02;1.70;;;;;;;-147.11;100.00;61570.13;5048331;28;20055;-38
2022/04/10 11:22:49;;;;;;;7.22;2.05;;;;;;;-147.11;100.00;61570.13;5059354;28;20028;-38